Time;durP1;ratioP1;P1;durP2;ratioP2;P2;SDS_P1;SDS_P2;PMS_P1;PMS_P2;Temp;Humidity;BMP_temperature;BMP_pressure;BME280_temperature;BME280_humidity;BME280_pressure;Samples;Min_cycle;Max_cycle;Signal;HPM_P1;HPM_P2
2023/09/27 00:00:17;;;;;;;11.02;5.20;;;;;;;17.03;68.98;98325.41;10464685;28;20074;-74
2023/09/27 00:05:58;;;;;;;10.25;5.25;;;;;;;16.98;69.61;98332.16;10481596;28;20052;-73
2023/09/27 00:11:19;;;;;;;10.02;5.70;;;;;;;16.95;70.07;98324.25;10464627;28;20479;-73
2023/09/27 00:16:40;;;;;;;11.23;5.75;;;;;;;16.93;70.40;98327.69;10453158;28;20060;-73
2023/09/27 00:22:01;;;;;;;12.65;6.85;;;;;;;16.97;70.67;98321.53;10465173;28;20109;-73
2023/09/27 00:27:22;;;;;;;13.00;5.82;;;;;;;16.93;70.75;98324.16;10480522;28;20743;-73
2023/09/27 00:32:44;;;;;;;14.80;5.93;;;;;;;16.87;71.09;98316.09;10479213;28;20124;-73
2023/09/27 00:38:06;;;;;;;13.88;6.05;;;;;;;16.86;71.28;98312.53;10466669;28;20158;-73
2023/09/27 00:43:28;;;;;;;11.73;5.78;;;;;;;16.85;71.53;98316.72;10437941;28;20135;-73
2023/09/27 00:48:49;;;;;;;13.30;5.85;;;;;;;16.84;71.24;98314.53;10452762;28;20068;-74
2023/09/27 00:54:10;;;;;;;12.32;7.05;;;;;;;16.83;71.73;98318.72;10460539;28;20064;-73
2023/09/27 00:59:31;;;;;;;12.38;6.47;;;;;;;16.79;71.85;98313.59;10489599;28;20040;-72
2023/09/27 01:04:52;;;;;;;11.88;6.68;;;;;;;16.74;72.05;98314.72;10489819;28;20079;-73
2023/09/27 01:10:13;;;;;;;11.98;6.85;;;;;;;16.70;72.50;98317.34;10476074;28;20453;-73
2023/09/27 01:15:34;;;;;;;11.73;7.07;;;;;;;16.65;72.25;98310.00;10475668;28;20111;-73
2023/09/27 01:20:55;;;;;;;13.50;6.93;;;;;;;16.63;73.16;98315.53;10489604;28;20117;-73
2023/09/27 01:26:16;;;;;;;15.77;7.32;;;;;;;16.64;73.11;98300.06;10461918;28;20119;-73
2023/09/27 01:31:37;;;;;;;11.77;6.65;;;;;;;16.62;73.56;98299.97;10461004;28;20526;-73
2023/09/27 01:36:58;;;;;;;17.17;7.47;;;;;;;16.58;74.10;98299.75;10488719;28;20118;-74
2023/09/27 01:42:18;;;;;;;16.95;7.18;;;;;;;16.55;74.05;98295.38;10460972;28;20186;-75
2023/09/27 01:47:39;;;;;;;10.57;6.25;;;;;;;16.52;74.09;98296.63;10460842;28;20121;-73
2023/09/27 01:53:00;;;;;;;12.00;6.30;;;;;;;16.43;74.40;98291.91;10460318;28;20549;-73
2023/09/27 01:58:21;;;;;;;9.90;6.47;;;;;;;16.33;74.58;98299.81;10473312;28;20123;-73
2023/09/27 02:03:42;;;;;;;15.32;7.38;;;;;;;16.17;75.04;98294.78;10474094;28;20116;-73
2023/09/27 02:09:06;;;;;;;17.20;6.90;;;;;;;16.07;75.22;98291.41;10446370;28;20482;-73
2023/09/27 02:14:26;;;;;;;14.07;7.60;;;;;;;15.97;75.72;98302.84;10483391;28;20072;-72
2023/09/27 02:19:47;;;;;;;12.35;7.32;;;;;;;15.88;75.64;98303.00;10503364;28;20100;-72
2023/09/27 02:25:09;;;;;;;13.23;6.72;;;;;;;15.74;75.33;98298.06;10544097;28;20068;-71
2023/09/27 02:30:30;;;;;;;9.20;7.10;;;;;;;15.64;76.03;98296.75;10484680;28;20127;-76
2023/09/27 02:35:51;;;;;;;12.80;7.25;;;;;;;15.57;76.33;98294.91;10475958;28;20089;-76
2023/09/27 02:41:12;;;;;;;10.60;6.70;;;;;;;15.52;76.55;98293.22;10477071;28;20079;-76
2023/09/27 02:46:33;;;;;;;10.95;6.75;;;;;;;15.45;77.03;98300.59;10491657;28;20064;-76
2023/09/27 02:51:55;;;;;;;11.95;7.10;;;;;;;15.38;76.68;98293.16;10511744;28;20044;-76
2023/09/27 02:57:16;;;;;;;9.45;6.63;;;;;;;15.27;76.87;98291.09;10519714;28;20064;-76
2023/09/27 03:02:37;;;;;;;11.43;6.85;;;;;;;15.14;77.34;98284.03;10466194;28;20459;-76
2023/09/27 03:07:58;;;;;;;8.45;6.57;;;;;;;15.07;77.40;98279.41;10507045;28;20047;-77
2023/09/27 03:13:20;;;;;;;11.00;6.65;;;;;;;15.02;77.68;98284.06;10496300;28;20040;-76
2023/09/27 03:18:41;;;;;;;16.08;6.82;;;;;;;14.98;77.88;98292.25;10523551;28;20048;-76
2023/09/27 03:24:03;;;;;;;12.00;7.18;;;;;;;14.93;78.35;98287.00;10510289;28;20040;-76
2023/09/27 03:29:23;;;;;;;13.50;6.95;;;;;;;14.88;78.33;98297.28;10509247;28;20040;-77
2023/09/27 03:34:44;;;;;;;12.45;7.57;;;;;;;14.90;78.46;98294.59;10523432;28;20047;-76
2023/09/27 03:40:15;;;;;;;12.77;7.55;;;;;;;14.92;78.65;98285.53;10510231;28;20043;-76
2023/09/27 03:45:37;;;;;;;10.10;6.55;;;;;;;14.90;78.65;98294.59;10482122;28;20106;-76
2023/09/27 03:51:00;;;;;;;;;;;;;;;14.81;79.18;98303.88;10465597;28;20079;-76
2023/09/27 03:56:22;;;;;;;11.90;6.95;;;;;;;14.73;79.03;98304.13;10494360;28;19924;-76
2023/09/27 04:01:43;;;;;;;10.95;7.28;;;;;;;14.73;79.65;98309.00;10481932;28;20044;-76
2023/09/27 04:07:05;;;;;;;13.38;7.95;;;;;;;14.76;79.35;98307.78;10474501;28;20041;-76
2023/09/27 04:12:26;;;;;;;11.75;7.85;;;;;;;14.71;79.53;98306.09;10509134;28;20470;-76
2023/09/27 04:17:47;;;;;;;10.43;7.03;;;;;;;14.71;79.24;98301.19;10507109;28;20066;-76
2023/09/27 04:23:07;;;;;;;11.00;7.55;;;;;;;14.67;79.75;98311.44;10520625;28;20415;-76
2023/09/27 04:28:28;;;;;;;11.23;8.23;;;;;;;14.71;80.03;98322.94;10507177;28;20036;-76
2023/09/27 04:33:49;;;;;;;19.20;8.60;;;;;;;14.73;80.20;98317.44;10518159;28;20070;-76
2023/09/27 04:39:18;;;;;;;13.70;8.35;;;;;;;14.69;79.60;98314.41;10455596;28;20052;-77
2023/09/27 04:44:39;;;;;;;11.13;7.88;;;;;;;14.61;80.44;98314.63;10477083;28;20075;-75
2023/09/27 04:50:01;;;;;;;15.27;8.52;;;;;;;14.63;80.77;98323.19;10509834;28;20063;-76
2023/09/27 04:55:21;;;;;;;10.98;8.35;;;;;;;14.68;81.02;98316.47;10479819;28;20043;-76
2023/09/27 05:00:42;;;;;;;16.13;8.95;;;;;;;14.76;80.53;98335.88;10475649;28;20040;-79
2023/09/27 05:06:04;;;;;;;11.88;8.40;;;;;;;14.93;80.87;98332.72;10479069;28;20063;-77
2023/09/27 05:11:25;;;;;;;13.05;10.15;;;;;;;15.29;81.51;98334.13;10468327;28;20082;-77
2023/09/27 05:16:45;;;;;;;11.82;8.10;;;;;;;15.93;81.11;98338.50;10448770;28;20491;-77
2023/09/27 05:22:06;;;;;;;15.52;8.65;;;;;;;16.49;79.89;98340.84;10442850;28;20052;-78
2023/09/27 05:27:27;;;;;;;11.18;8.15;;;;;;;17.22;79.93;98346.81;10426448;28;20064;-77
2023/09/27 05:32:47;;;;;;;12.18;7.82;;;;;;;19.24;77.54;98353.47;10414586;28;20037;-76
2023/09/27 05:38:08;;;;;;;11.25;7.68;;;;;;;21.62;73.98;98359.84;10417329;28;20048;-75
2023/09/27 05:43:29;;;;;;;15.48;7.90;;;;;;;21.89;69.61;98367.84;10415906;28;20061;-75
2023/09/27 05:48:50;;;;;;;12.88;8.27;;;;;;;21.64;70.23;98365.59;10455154;28;20135;-75
2023/09/27 05:54:11;;;;;;;13.43;8.57;;;;;;;23.26;64.66;98367.03;10472837;28;20515;-75
2023/09/27 05:59:35;;;;;;;11.90;8.55;;;;;;;22.09;65.01;98382.03;10470344;28;20072;-77
2023/09/27 06:04:57;;;;;;;12.77;8.70;;;;;;;23.62;66.07;98387.25;10474347;28;20399;-76
2023/09/27 06:10:17;;;;;;;14.85;8.25;;;;;;;25.23;61.47;98395.97;10459259;28;20064;-76
2023/09/27 06:15:38;;;;;;;13.00;8.05;;;;;;;29.18;56.52;98395.06;10472474;28;20119;-75
2023/09/27 06:20:59;;;;;;;13.57;8.23;;;;;;;32.27;49.07;98411.03;10471515;28;20064;-72
2023/09/27 06:26:21;;;;;;;11.68;7.22;;;;;;;35.17;43.28;98420.72;10476505;28;20056;-74
2023/09/27 06:31:44;;;;;;;11.00;7.43;;;;;;;35.00;38.37;98428.31;10485346;28;20501;-72
2023/09/27 06:37:07;;;;;;;11.63;7.45;;;;;;;35.03;34.53;98426.06;10483042;28;20037;-76
2023/09/27 06:42:28;;;;;;;11.40;7.68;;;;;;;35.75;30.61;98420.94;10472688;28;20094;-73
2023/09/27 06:47:49;;;;;;;12.95;7.47;;;;;;;37.04;27.21;98435.88;10448655;28;20072;-74
2023/09/27 06:53:09;;;;;;;13.20;8.07;;;;;;;39.95;23.15;98443.63;10485453;28;20490;-74
2023/09/27 06:58:43;;;;;;;10.88;7.65;;;;;;;41.51;20.06;98450.19;10481366;28;20045;-74
2023/09/27 07:04:05;;;;;;;10.00;6.93;;;;;;;42.85;18.91;98445.81;10465705;28;20132;-75
2023/09/27 07:09:26;;;;;;;8.57;6.32;;;;;;;43.56;18.24;98447.22;10413526;28;20167;-77
2023/09/27 07:14:47;;;;;;;14.70;6.85;;;;;;;43.09;17.75;98452.69;10416482;28;20117;-76
2023/09/27 07:20:24;;;;;;;8.70;6.97;;;;;;;43.89;16.80;98455.66;10415701;28;20121;-75
2023/09/27 07:25:47;;;;;;;12.18;6.57;;;;;;;44.63;16.26;98463.94;10416781;28;20142;-75
2023/09/27 07:31:08;;;;;;;10.45;6.45;;;;;;;47.46;14.06;98457.31;10425764;28;20095;-76
2023/09/27 07:36:29;;;;;;;10.15;6.07;;;;;;;48.84;13.47;98457.50;10442545;28;20045;-76
2023/09/27 07:41:50;;;;;;;12.50;6.40;;;;;;;49.50;12.18;98448.56;10457517;28;20076;-76
2023/09/27 07:47:11;;;;;;;7.85;5.72;;;;;;;49.48;11.93;98460.59;10441859;28;20037;-76
2023/09/27 07:52:32;;;;;;;12.38;5.28;;;;;;;50.00;11.55;98466.78;10428210;28;20068;-75
2023/09/27 07:57:52;;;;;;;10.13;5.43;;;;;;;51.01;11.16;98459.78;10456228;28;20049;-77
2023/09/27 08:03:14;;;;;;;15.57;5.30;;;;;;;52.46;9.90;98456.47;10450365;28;20761;-76
2023/09/27 08:08:35;;;;;;;9.48;5.60;;;;;;;52.58;9.72;98454.63;10497833;28;20111;-76
2023/09/27 08:13:56;;;;;;;8.23;4.65;;;;;;;53.01;9.52;98445.34;10497590;28;20158;-77
2023/09/27 08:19:20;;;;;;;10.15;5.57;;;;;;;53.77;9.32;98447.69;10483207;28;20049;-77
2023/09/27 08:24:41;;;;;;;9.48;4.60;;;;;;;54.47;8.38;98445.13;10497502;28;20048;-77
2023/09/27 08:30:05;;;;;;;12.48;5.78;;;;;;;54.08;8.45;98441.69;10482164;28;20059;-75
2023/09/27 08:35:27;;;;;;;10.02;6.05;;;;;;;54.04;8.30;98440.44;10468948;28;20079;-75
2023/09/27 08:40:49;;;;;;;8.57;5.30;;;;;;;53.46;8.30;98423.81;10468088;28;20040;-77
2023/09/27 08:46:11;;;;;;;6.32;4.25;;;;;;;51.45;9.47;98430.69;10396536;28;20033;-75
2023/09/27 08:51:32;;;;;;;6.50;4.80;;;;;;;50.95;9.74;98428.31;10461033;28;20376;-76
2023/09/27 08:56:53;;;;;;;8.98;4.40;;;;;;;50.20;10.36;98428.78;10467818;28;20124;-75
2023/09/27 09:02:13;;;;;;;9.68;4.55;;;;;;;50.26;10.78;98424.59;10481036;28;20175;-75
2023/09/27 09:07:35;;;;;;;8.68;4.07;;;;;;;50.92;9.94;98426.41;10471682;28;20097;-75
2023/09/27 09:12:59;;;;;;;6.85;3.63;;;;;;;51.15;9.86;98419.91;10475748;28;20120;-76
2023/09/27 09:18:28;;;;;;;6.07;3.27;;;;;;;51.15;10.08;98416.94;10489937;28;20071;-76
2023/09/27 09:23:50;;;;;;;6.35;3.50;;;;;;;51.44;9.90;98432.25;10489690;28;20041;-75
2023/09/27 09:29:12;;;;;;;6.75;3.20;;;;;;;52.12;9.36;98421.66;10488774;28;20044;-75
2023/09/27 09:34:39;;;;;;;5.72;3.38;;;;;;;51.33;9.58;98414.59;10488950;28;20094;-71
2023/09/27 09:40:14;;;;;;;9.05;3.80;;;;;;;50.47;10.02;98412.41;10489109;28;20391;-76
2023/09/27 09:45:42;;;;;;;6.75;3.33;;;;;;;50.03;10.66;98408.66;10488261;28;20060;-81
2023/09/27 09:51:06;;;;;;;7.05;3.60;;;;;;;50.47;11.11;98396.88;10461219;28;20041;-77
2023/09/27 09:56:27;;;;;;;9.95;3.45;;;;;;;50.74;10.60;98404.91;10488242;28;20630;-76
2023/09/27 10:01:57;;;;;;;7.03;3.55;;;;;;;50.55;10.48;98396.88;10476726;28;20051;-76
2023/09/27 10:07:19;;;;;;;8.73;3.30;;;;;;;51.66;9.73;98385.63;10473441;28;20118;-85
2023/09/27 10:12:41;;;;;;;10.23;3.60;;;;;;;52.12;10.00;98385.94;10460400;28;20086;-88
2023/09/27 10:18:33;;;;;;;6.93;3.42;;;;;;;51.83;9.25;98393.09;10473671;28;20123;-89
2023/09/27 10:23:59;;;;;;;6.18;3.45;;;;;;;52.68;9.23;98385.13;10467880;28;20049;-80
2023/09/27 10:29:21;;;;;;;8.43;3.38;;;;;;;53.63;9.10;98377.47;10486984;28;20539;-76
2023/09/27 10:34:43;;;;;;;7.43;3.65;;;;;;;52.21;9.17;98368.00;10459757;28;20055;-81
2023/09/27 10:40:18;;;;;;;6.30;3.15;;;;;;;52.18;9.03;98361.53;10472575;28;20115;-82
2023/09/27 10:45:47;;;;;;;5.15;3.08;;;;;;;50.16;10.70;98354.91;10472459;28;20079;-78
2023/09/27 10:51:09;;;;;;;8.10;2.75;;;;;;;48.60;11.81;98342.31;10491455;28;20056;-79
2023/09/27 10:56:30;;;;;;;6.75;3.05;;;;;;;48.56;11.42;98330.81;10476583;28;20032;-77
2023/09/27 11:01:51;;;;;;;5.75;2.95;;;;;;;50.03;10.95;98322.59;10471760;28;20045;-77
2023/09/27 11:07:13;;;;;;;8.68;3.03;;;;;;;49.57;11.02;98312.38;10471480;28;20036;-72
2023/09/27 11:12:33;;;;;;;5.22;3.08;;;;;;;48.24;11.60;98307.38;10485253;28;20056;-75
2023/09/27 11:17:57;;;;;;;8.13;3.60;;;;;;;43.19;15.10;98301.66;10485140;28;20120;-76
2023/09/27 11:23:20;;;;;;;5.75;3.15;;;;;;;46.98;13.16;98287.88;10499489;28;20390;-75
2023/09/27 11:28:41;;;;;;;7.05;3.10;;;;;;;46.20;13.03;98277.84;10484423;28;20115;-76
2023/09/27 11:34:11;;;;;;;9.30;3.97;;;;;;;44.46;14.03;98281.72;10498740;28;20047;-75
2023/09/27 11:39:50;;;;;;;9.13;3.50;;;;;;;43.60;14.16;98265.50;10482395;28;20398;-75
2023/09/27 11:45:12;;;;;;;6.50;3.42;;;;;;;40.36;16.81;98269.50;10496550;28;20036;-75
2023/09/27 11:50:34;;;;;;;5.53;3.45;;;;;;;34.70;21.65;98256.34;10494985;28;20075;-73
2023/09/27 11:55:55;;;;;;;8.23;3.35;;;;;;;32.28;25.70;98256.50;10492271;28;20044;-73
2023/09/27 12:01:16;;;;;;;8.13;3.30;;;;;;;31.09;27.05;98253.16;10492925;28;20521;-74
2023/09/27 12:06:37;;;;;;;;;;;;;;;30.42;28.83;98243.38;10481424;28;20391;-75
2023/09/27 12:11:59;;;;;;;7.45;3.92;;;;;;;29.90;29.46;98241.31;10497968;28;19916;-75
2023/09/27 12:17:21;;;;;;;10.20;4.43;;;;;;;29.01;30.57;98250.59;10483339;28;20467;-71
2023/09/27 12:22:43;;;;;;;14.38;4.10;;;;;;;28.80;31.02;98223.94;10497896;28;20036;-72
2023/09/27 12:28:04;;;;;;;8.63;4.40;;;;;;;28.81;31.53;98222.50;10482767;28;20036;-72
2023/09/27 12:33:26;;;;;;;6.85;3.75;;;;;;;28.41;32.06;98208.75;10497541;28;20043;-72
2023/09/27 12:38:47;;;;;;;8.38;3.53;;;;;;;28.03;33.03;98198.50;10482290;28;20036;-72
2023/09/27 12:44:09;;;;;;;6.78;3.72;;;;;;;28.00;33.38;98194.19;10497514;28;20042;-71
2023/09/27 12:49:41;;;;;;;9.85;3.67;;;;;;;27.93;33.54;98204.19;10459397;28;20040;-71
2023/09/27 12:55:05;;;;;;;9.65;4.18;;;;;;;27.88;33.86;98182.63;10497266;28;20036;-71
2023/09/27 13:00:26;;;;;;;7.47;3.65;;;;;;;27.77;33.90;98184.00;10482295;28;20048;-72
2023/09/27 13:05:47;;;;;;;9.40;4.10;;;;;;;28.15;33.58;98172.00;10496936;28;20047;-72
2023/09/27 13:11:09;;;;;;;9.00;3.80;;;;;;;28.32;33.41;98181.44;10468065;28;20044;-72
2023/09/27 13:16:30;;;;;;;7.70;3.80;;;;;;;28.41;33.05;98171.44;10481749;28;20039;-71
2023/09/27 13:21:51;;;;;;;10.40;4.32;;;;;;;28.02;32.97;98159.03;10496434;28;20352;-71
2023/09/27 13:27:13;;;;;;;8.23;3.50;;;;;;;28.11;33.48;98146.91;10468162;28;20041;-70
2023/09/27 13:32:34;;;;;;;6.07;3.28;;;;;;;27.91;32.60;98147.53;10453790;28;20041;-70
2023/09/27 13:37:55;;;;;;;8.00;3.23;;;;;;;27.68;32.13;98140.22;10481007;28;20078;-72
2023/09/27 13:43:16;;;;;;;9.90;2.95;;;;;;;27.49;32.11;98133.59;10481129;28;20040;-71
2023/09/27 13:48:37;;;;;;;11.52;3.63;;;;;;;27.27;32.13;98117.00;10496195;28;20037;-71
2023/09/27 13:53:58;;;;;;;10.63;2.83;;;;;;;27.20;32.06;98126.25;10498341;28;20046;-72
2023/09/27 13:59:20;;;;;;;9.30;3.40;;;;;;;27.07;32.25;98119.69;10503308;28;20057;-72
2023/09/27 14:04:42;;;;;;;6.40;2.67;;;;;;;27.20;31.29;98112.63;10488487;28;20041;-71
2023/09/27 14:10:03;;;;;;;8.45;3.05;;;;;;;27.06;31.06;98113.25;10460926;28;20044;-71
2023/09/27 14:15:25;;;;;;;7.05;2.80;;;;;;;26.87;30.81;98108.78;10487895;28;20051;-73
2023/09/27 14:20:48;;;;;;;7.38;2.22;;;;;;;26.79;30.39;98108.69;10487504;28;20483;-71
2023/09/27 14:26:09;;;;;;;5.90;2.67;;;;;;;26.63;30.26;98099.94;10487123;28;20060;-71
2023/09/27 14:31:31;;;;;;;5.40;2.22;;;;;;;26.57;30.23;98099.91;10486718;28;20036;-71
2023/09/27 14:36:52;;;;;;;11.20;2.50;;;;;;;26.67;30.33;98089.25;10473358;28;20059;-71
2023/09/27 14:42:13;;;;;;;8.70;2.58;;;;;;;26.85;29.78;98088.00;10486781;28;20052;-70
2023/09/27 14:47:34;;;;;;;6.28;2.50;;;;;;;26.70;29.67;98090.00;10486553;28;20040;-71
2023/09/27 14:52:56;;;;;;;9.30;2.28;;;;;;;26.68;29.99;98087.84;10472908;28;20032;-72
2023/09/27 14:58:17;;;;;;;7.75;3.00;;;;;;;26.41;31.80;98075.41;10500696;28;20036;-71
2023/09/27 15:03:38;;;;;;;7.72;3.40;;;;;;;26.24;32.21;98082.34;10500569;28;20045;-70
2023/09/27 15:08:59;;;;;;;5.40;2.53;;;;;;;26.15;32.07;98075.84;10500457;28;20120;-71
2023/09/27 15:14:20;;;;;;;5.50;2.58;;;;;;;25.98;33.01;98079.94;10485258;28;20492;-71
2023/09/27 15:19:41;;;;;;;8.38;2.80;;;;;;;25.94;33.31;98074.16;10471303;28;20497;-70
2023/09/27 15:25:04;;;;;;;4.85;2.70;;;;;;;25.94;32.86;98074.16;10485022;28;20068;-71
2023/09/27 15:30:25;;;;;;;8.68;3.08;;;;;;;25.78;33.49;98071.09;10499455;28;20382;-71
2023/09/27 15:35:53;;;;;;;4.35;2.63;;;;;;;25.58;33.77;98077.25;10484781;28;20032;-71
2023/09/27 15:41:17;;;;;;;8.82;3.20;;;;;;;25.31;34.56;98073.31;10470401;28;20044;-70
2023/09/27 15:46:43;;;;;;;8.00;3.05;;;;;;;25.16;34.91;98080.22;10484165;28;20047;-71
2023/09/27 15:52:04;;;;;;;11.25;3.05;;;;;;;24.99;35.34;98082.06;10471849;28;20051;-71
2023/09/27 15:57:29;;;;;;;5.25;2.60;;;;;;;24.81;35.71;98080.38;10484381;28;20036;-71
2023/09/27 16:02:49;;;;;;;7.57;3.40;;;;;;;24.76;35.73;98078.13;10469725;28;20118;-71
2023/09/27 16:08:10;;;;;;;8.00;2.80;;;;;;;24.57;36.06;98071.38;10483627;28;20039;-71
2023/09/27 16:13:31;;;;;;;6.65;2.78;;;;;;;24.45;36.35;98074.03;10482751;28;20433;-71
2023/09/27 16:18:52;;;;;;;7.35;3.25;;;;;;;24.34;36.35;98069.56;10482854;28;20036;-71
2023/09/27 16:24:13;;;;;;;6.05;2.70;;;;;;;24.19;36.51;98074.22;10497888;28;20033;-70
2023/09/27 16:29:34;;;;;;;5.57;2.63;;;;;;;24.01;36.88;98076.72;10497546;28;20486;-70
2023/09/27 16:34:56;;;;;;;4.85;2.95;;;;;;;23.84;37.20;98075.69;10469088;28;20120;-70
2023/09/27 16:40:17;;;;;;;5.95;2.72;;;;;;;23.65;37.40;98063.91;10482968;28;20032;-71
2023/09/27 16:45:39;;;;;;;8.47;3.33;;;;;;;23.49;37.99;98069.22;10468513;28;20041;-70
2023/09/27 16:50:59;;;;;;;7.35;3.20;;;;;;;23.31;38.27;98066.69;10468367;28;20041;-71
2023/09/27 16:56:20;;;;;;;9.30;2.80;;;;;;;23.10;38.90;98068.38;10482390;28;20037;-70
2023/09/27 17:01:42;;;;;;;6.53;3.20;;;;;;;22.91;39.10;98072.19;10468470;28;20037;-70
2023/09/27 17:07:03;;;;;;;7.68;3.28;;;;;;;22.70;39.74;98070.22;10496814;28;20118;-70
2023/09/27 17:12:24;;;;;;;7.72;3.03;;;;;;;22.51;39.91;98069.75;10481830;28;20040;-70
2023/09/27 17:17:45;;;;;;;7.07;3.13;;;;;;;22.31;40.24;98074.91;10496839;28;20074;-70
2023/09/27 17:23:06;;;;;;;8.93;3.22;;;;;;;;;;10496837;28;20170;-71
2023/09/27 17:28:27;;;;;;;8.02;3.30;;;;;;;22.00;41.08;98061.94;10484778;28;20474;-71
2023/09/27 17:33:47;;;;;;;7.10;3.17;;;;;;;21.81;41.60;98060.00;10475324;28;20047;-71
2023/09/27 17:39:09;;;;;;;7.10;3.20;;;;;;;21.64;42.04;98061.66;10489233;28;20131;-70
2023/09/27 17:44:30;;;;;;;8.38;3.70;;;;;;;21.46;42.86;98058.28;10503909;28;20090;-71
2023/09/27 17:49:51;;;;;;;10.23;4.78;;;;;;;21.32;43.18;98061.41;10504204;28;20060;-71
2023/09/27 17:55:12;;;;;;;10.75;4.68;;;;;;;21.21;43.56;98060.34;10488444;28;20139;-71
2023/09/27 18:00:33;;;;;;;13.85;3.97;;;;;;;21.11;44.51;98060.03;10503776;28;20120;-71
2023/09/27 18:05:54;;;;;;;10.40;4.20;;;;;;;20.96;44.49;98056.03;10503273;28;20059;-71
2023/09/27 18:11:15;;;;;;;10.27;4.22;;;;;;;20.85;44.84;98057.84;10488121;28;20040;-70
2023/09/27 18:16:36;;;;;;;10.38;3.92;;;;;;;20.80;45.39;98061.91;10460483;28;20162;-70
2023/09/27 18:21:56;;;;;;;8.02;4.32;;;;;;;20.74;45.39;98069.50;10502584;28;20071;-70
2023/09/27 18:27:17;;;;;;;6.95;4.22;;;;;;;20.72;46.13;98064.47;10502846;28;20067;-71
2023/09/27 18:32:38;;;;;;;11.25;4.15;;;;;;;20.70;46.47;98060.88;10487093;28;20443;-72
2023/09/27 18:37:58;;;;;;;13.13;4.00;;;;;;;20.73;46.30;98060.25;10487748;28;20111;-71
2023/09/27 18:43:19;;;;;;;8.82;4.35;;;;;;;20.73;46.88;98057.44;10501839;28;20064;-71
2023/09/27 18:48:40;;;;;;;7.85;3.53;;;;;;;20.79;46.96;98054.06;10486846;28;20048;-70
2023/09/27 18:54:01;;;;;;;6.18;3.50;;;;;;;20.80;46.94;98061.91;10501331;28;20142;-70
2023/09/27 18:59:21;;;;;;;7.68;3.72;;;;;;;20.77;47.30;98054.72;10472850;28;20035;-70
2023/09/27 19:04:42;;;;;;;9.02;4.00;;;;;;;20.75;46.93;98071.69;10486078;28;20079;-71
2023/09/27 19:10:03;;;;;;;9.07;3.40;;;;;;;20.63;47.30;98064.88;10500595;28;20359;-71
2023/09/27 19:15:24;;;;;;;9.73;4.03;;;;;;;20.52;47.20;98064.53;10500601;28;20538;-71
2023/09/27 19:20:44;;;;;;;11.25;4.05;;;;;;;20.25;47.60;98062.88;10485532;28;20463;-71
2023/09/27 19:26:09;;;;;;;8.48;3.72;;;;;;;20.10;47.91;98063.78;10500057;28;20060;-71
2023/09/27 19:31:30;;;;;;;9.82;3.78;;;;;;;20.00;48.29;98066.25;10485038;28;20514;-72
2023/09/27 19:36:50;;;;;;;8.35;3.83;;;;;;;19.94;47.68;98066.03;10499701;28;20474;-71
2023/09/27 19:42:11;;;;;;;6.68;3.90;;;;;;;19.90;48.35;98069.47;10484402;28;20114;-71
2023/09/27 19:47:32;;;;;;;9.45;4.47;;;;;;;19.83;48.51;98069.88;10499285;28;20116;-71
2023/09/27 19:52:56;;;;;;;7.85;4.00;;;;;;;19.74;48.55;98068.88;10498055;28;20041;-71
2023/09/27 19:58:17;;;;;;;7.53;4.15;;;;;;;19.65;48.63;98065.00;10483818;28;20087;-71
2023/09/27 20:03:38;;;;;;;11.80;4.20;;;;;;;19.62;47.95;98057.81;10470291;28;20068;-71
2023/09/27 20:08:59;;;;;;;7.13;4.13;;;;;;;19.64;48.25;98071.31;10498929;28;20466;-71
2023/09/27 20:14:20;;;;;;;9.90;3.75;;;;;;;19.64;48.47;98063.56;10469492;28;20066;-71
2023/09/27 20:19:41;;;;;;;11.50;3.95;;;;;;;19.75;48.23;98063.94;10498452;28;20120;-71
2023/09/27 20:25:03;;;;;;;6.00;3.55;;;;;;;19.74;47.95;98068.88;10483545;28;20378;-71
2023/09/27 20:30:24;;;;;;;9.43;3.72;;;;;;;19.75;47.79;98069.59;10497960;28;20116;-70
2023/09/27 20:35:45;;;;;;;9.57;3.72;;;;;;;19.64;47.82;98069.22;10497795;28;20071;-70
2023/09/27 20:41:05;;;;;;;12.00;3.60;;;;;;;19.61;48.17;98064.88;10497783;28;20386;-71
2023/09/27 20:46:26;;;;;;;8.15;3.90;;;;;;;19.54;47.93;98068.81;10497515;28;20112;-71
2023/09/27 20:51:47;;;;;;;8.55;3.63;;;;;;;19.47;47.97;98072.78;10497550;28;20129;-70
2023/09/27 20:57:08;;;;;;;7.40;3.47;;;;;;;19.42;48.26;98080.41;10497593;28;20112;-72
2023/09/27 21:02:28;;;;;;;9.00;3.42;;;;;;;19.37;48.61;98069.56;10484597;28;20423;-73
2023/09/27 21:07:50;;;;;;;10.95;3.75;;;;;;;19.26;48.88;98076.22;10505672;28;20037;-73
2023/09/27 21:13:10;;;;;;;9.68;3.88;;;;;;;19.23;48.78;98066.22;10476578;28;20107;-73
2023/09/27 21:18:31;;;;;;;9.85;4.20;;;;;;;19.11;48.89;98064.38;10490943;28;20108;-72
2023/09/27 21:23:51;;;;;;;8.07;3.85;;;;;;;19.09;49.51;98072.03;10505443;28;20418;-71
2023/09/27 21:29:13;;;;;;;11.60;3.85;;;;;;;19.06;49.77;98065.56;10490043;28;20461;-71
2023/09/27 21:34:34;;;;;;;6.18;3.55;;;;;;;18.97;49.77;98060.25;10504483;28;20116;-72
2023/09/27 21:39:55;;;;;;;13.07;3.97;;;;;;;18.88;50.25;98064.84;10504329;28;20482;-72
2023/09/27 21:45:16;;;;;;;7.18;3.70;;;;;;;18.77;50.49;98058.06;10489225;28;20041;-72
2023/09/27 21:50:37;;;;;;;11.18;4.07;;;;;;;18.71;50.47;98059.91;10503744;28;20120;-72
2023/09/27 21:55:58;;;;;;;9.05;4.13;;;;;;;18.59;51.04;98057.28;10488848;28;20036;-72
2023/09/27 22:01:21;;;;;;;7.72;3.65;;;;;;;18.52;51.77;98058.41;10489118;28;20060;-72
2023/09/27 22:06:45;;;;;;;12.25;3.72;;;;;;;18.47;51.83;98053.97;10503718;28;20144;-72
2023/09/27 22:12:07;;;;;;;8.30;4.47;;;;;;;18.41;51.56;98048.78;10503436;28;20414;-71
2023/09/27 22:17:35;;;;;;;7.07;3.10;;;;;;;18.35;51.86;98048.53;10502035;28;20345;-72
2023/09/27 22:23:00;;;;;;;7.20;3.13;;;;;;;18.36;51.81;98041.50;10473930;28;20064;-70
2023/09/27 22:28:21;;;;;;;11.05;4.50;;;;;;;18.33;52.18;98042.78;10488678;28;20056;-72
2023/09/27 22:33:43;;;;;;;9.00;4.50;;;;;;;18.28;52.14;98041.91;10487859;28;20037;-71
2023/09/27 22:39:10;;;;;;;12.10;4.28;;;;;;;18.24;52.43;98038.91;10487255;28;20135;-72
2023/09/27 22:44:32;;;;;;;9.57;4.50;;;;;;;18.17;52.45;98030.81;10487011;28;20119;-73
2023/09/27 22:49:53;;;;;;;9.35;3.53;;;;;;;18.13;53.02;98036.28;10487209;28;20132;-73
2023/09/27 22:55:15;;;;;;;5.95;3.72;;;;;;;18.06;53.65;98026.13;10472444;28;20120;-70
2023/09/27 23:00:39;;;;;;;10.90;4.05;;;;;;;17.95;53.47;98022.09;10486542;28;20116;-72
2023/09/27 23:06:01;;;;;;;9.50;3.58;;;;;;;17.88;54.01;98018.31;10472228;28;20068;-72
2023/09/27 23:11:28;;;;;;;8.82;3.50;;;;;;;17.84;53.69;98020.22;10500775;28;20536;-72
2023/09/27 23:16:49;;;;;;;5.80;2.90;;;;;;;17.79;54.06;98018.59;10501211;28;20585;-72
2023/09/27 23:22:11;;;;;;;10.10;3.17;;;;;;;17.73;53.98;98007.75;10457757;28;20040;-71
2023/09/27 23:27:31;;;;;;;10.75;3.30;;;;;;;17.68;53.87;98012.47;10500105;28;20108;-73
2023/09/27 23:32:52;;;;;;;7.30;3.22;;;;;;;17.65;53.91;98018.66;10499721;28;20422;-73
2023/09/27 23:43:52;;;;;;;7.15;2.90;;;;;;;17.55;54.38;98006.91;10487796;28;20123;-72
2023/09/27 23:49:16;;;;;;;10.48;3.40;;;;;;;17.52;54.60;98005.38;10499268;28;20167;-72
2023/09/27 23:54:41;;;;;;;12.07;3.50;;;;;;;17.45;54.36;97998.72;10484565;28;20048;-72
